createdAt,value
2023-05-10T00:00:11.210Z,209
2023-05-10T00:01:25.409Z,413
2023-05-10T00:03:53.814Z,208
2023-05-10T00:05:07.746Z,419
2023-05-10T00:06:21.913Z,605
2023-05-10T00:08:50.113Z,451
2023-05-10T00:10:04.594Z,490
2023-05-10T00:11:19.615Z,400
2023-05-10T00:13:46.767Z,756
2023-05-10T00:15:00.788Z,737
2023-05-10T00:16:15.081Z,559
2023-05-10T00:18:43.312Z,744
2023-05-10T00:19:57.352Z,873
2023-05-10T00:21:11.498Z,590
2023-05-10T00:22:25.600Z,886
2023-05-10T00:24:53.847Z,747
2023-05-10T00:26:08.214Z,656
2023-05-10T00:27:22.128Z,518
2023-05-10T00:29:50.373Z,760
2023-05-10T00:31:04.563Z,642
2023-05-10T00:32:18.855Z,951
2023-05-10T00:34:47.200Z,591
2023-05-10T00:36:01.079Z,685
2023-05-10T00:37:15.222Z,207
2023-05-10T00:38:29.409Z,366
2023-05-10T00:39:43.497Z,501
2023-05-10T00:40:57.605Z,800
2023-05-10T00:42:11.730Z,755
2023-05-10T00:43:25.854Z,268
2023-05-10T00:45:54.150Z,373
2023-05-10T00:47:08.395Z,650
2023-05-10T00:48:22.405Z,486
2023-05-10T00:50:50.767Z,423
2023-05-10T00:52:04.845Z,429
2023-05-10T00:53:18.950Z,535
2023-05-10T00:55:47.205Z,646
2023-05-10T00:57:01.369Z,646
2023-05-10T00:58:15.523Z,505
2023-05-10T01:00:43.785Z,317
2023-05-10T01:01:57.880Z,341
2023-05-10T01:03:12.088Z,406
2023-05-10T01:04:26.182Z,403
2023-05-10T01:06:54.388Z,611
2023-05-10T01:08:08.623Z,611
2023-05-10T01:09:22.760Z,509
2023-05-10T01:11:50.955Z,468
2023-05-10T01:13:05.064Z,310
2023-05-10T01:14:19.335Z,647
2023-05-10T01:16:47.448Z,822
2023-05-10T01:18:01.651Z,742
2023-05-10T01:19:15.756Z,937
2023-05-10T01:21:44.020Z,831
2023-05-10T01:22:58.561Z,393
2023-05-10T01:24:12.300Z,568
2023-05-10T01:25:26.439Z,190
2023-05-10T01:27:54.631Z,280
2023-05-10T01:29:08.871Z,551
2023-05-10T01:30:23.135Z,363
2023-05-10T01:32:51.275Z,446
2023-05-10T01:34:05.443Z,358
2023-05-10T01:35:19.461Z,509
2023-05-10T01:37:47.930Z,376
2023-05-10T01:39:01.980Z,495
2023-05-10T01:40:16.203Z,364
2023-05-10T01:42:44.405Z,102
2023-05-10T01:43:58.519Z,53
2023-05-10T01:45:12.628Z,60
2023-05-10T01:46:26.753Z,133
2023-05-10T01:48:54.940Z,218
2023-05-10T01:50:09.084Z,76
2023-05-10T01:51:23.216Z,258
2023-05-10T01:53:51.473Z,42
2023-05-10T01:55:05.705Z,163
2023-05-10T01:56:19.769Z,280
2023-05-10T01:58:47.966Z,47
2023-05-10T02:00:02.354Z,27
2023-05-10T02:01:16.386Z,87
2023-05-10T02:03:44.649Z,20
2023-05-10T02:04:58.743Z,16
2023-05-10T02:06:12.886Z,19
2023-05-10T02:07:27.024Z,23
2023-05-10T02:09:55.201Z,17
2023-05-10T02:11:09.465Z,15
2023-05-10T02:12:23.607Z,16
2023-05-10T02:14:51.720Z,18
2023-05-10T02:16:05.909Z,22
2023-05-10T02:17:20.050Z,21
2023-05-10T02:19:48.278Z,11
2023-05-10T02:21:02.484Z,15
2023-05-10T02:22:16.527Z,12
2023-05-10T02:24:44.830Z,12
2023-05-10T02:25:58.976Z,13
2023-05-10T02:27:13.146Z,13
2023-05-10T02:28:27.205Z,13
2023-05-10T02:30:55.461Z,11
2023-05-10T02:32:09.793Z,13
2023-05-10T02:33:23.793Z,13
2023-05-10T02:35:53.307Z,13
2023-05-10T02:37:06.105Z,10
2023-05-10T02:38:20.248Z,12
2023-05-10T02:42:03.810Z,12
2023-05-10T02:43:16.788Z,13
2023-05-10T02:45:45.105Z,10
2023-05-10T02:46:59.216Z,15
2023-05-10T02:48:13.471Z,13
2023-05-10T02:49:27.497Z,20
2023-05-10T02:51:55.718Z,62
2023-05-10T02:53:09.883Z,14
2023-05-10T02:54:24.010Z,15
2023-05-10T02:56:52.415Z,19
2023-05-10T02:58:06.453Z,19
2023-05-10T02:59:20.462Z,32
2023-05-10T03:01:49.025Z,59
2023-05-10T03:03:03.081Z,379
2023-05-10T03:04:17.072Z,195
2023-05-10T03:06:45.426Z,84
2023-05-10T03:07:59.584Z,46
2023-05-10T03:09:13.607Z,156
2023-05-10T03:11:41.880Z,19
2023-05-10T03:12:56.022Z,58
2023-05-10T03:14:10.081Z,38
2023-05-10T03:15:24.253Z,53
2023-05-10T03:17:52.561Z,83
2023-05-10T03:19:06.641Z,110
2023-05-10T03:20:20.780Z,63
2023-05-10T03:22:49.202Z,18
2023-05-10T03:24:03.239Z,22
2023-05-10T03:25:17.532Z,28
2023-05-10T03:27:45.661Z,368
2023-05-10T03:28:59.796Z,90
2023-05-10T03:30:14.047Z,446
2023-05-10T03:32:42.337Z,397
2023-05-10T03:33:56.242Z,477
2023-05-10T03:35:10.365Z,850
2023-05-10T03:36:24.598Z,790
2023-05-10T03:38:52.899Z,691
2023-05-10T03:40:06.934Z,555
2023-05-10T03:41:21.056Z,644
2023-05-10T03:43:49.335Z,213
2023-05-10T03:45:03.614Z,352
2023-05-10T03:46:17.585Z,431
2023-05-10T03:48:45.896Z,17
2023-05-10T03:49:59.981Z,21
2023-05-10T03:51:14.168Z,17
2023-05-10T03:53:42.552Z,14
2023-05-10T03:54:56.621Z,17
2023-05-10T03:56:10.628Z,15
2023-05-10T03:57:24.841Z,12
2023-05-10T03:59:53.262Z,14
2023-05-10T04:01:07.178Z,14
2023-05-10T04:02:21.337Z,14
2023-05-10T04:04:49.564Z,11
2023-05-10T04:06:03.897Z,13
2023-05-10T04:07:17.855Z,16
2023-05-10T04:09:46.111Z,10
2023-05-10T04:11:00.234Z,10
2023-05-10T04:12:14.409Z,10
2023-05-10T04:14:42.671Z,9
2023-05-10T04:15:56.785Z,10
2023-05-10T04:17:11.036Z,12
2023-05-10T04:18:25.101Z,12
2023-05-10T04:20:53.501Z,20
2023-05-10T04:22:07.747Z,24
2023-05-10T04:23:21.537Z,25
2023-05-10T04:25:50.028Z,38
2023-05-10T04:27:04.001Z,41
2023-05-10T04:28:18.073Z,40
2023-05-10T04:30:46.414Z,56
2023-05-10T04:32:00.501Z,74
2023-05-10T04:33:14.611Z,74
2023-05-10T04:35:43.016Z,104
2023-05-10T04:36:57.016Z,107
2023-05-10T04:38:11.276Z,147
2023-05-10T04:39:25.327Z,119
2023-05-10T04:41:53.693Z,83
2023-05-10T04:43:07.882Z,86
2023-05-10T04:44:21.812Z,140
2023-05-10T04:46:50.153Z,91
2023-05-10T04:48:04.344Z,126
2023-05-10T04:49:18.423Z,160
2023-05-10T04:51:46.739Z,148
2023-05-10T04:53:00.748Z,122
2023-05-10T04:54:14.907Z,110
2023-05-10T04:56:43.174Z,71
2023-05-10T04:57:57.422Z,77
2023-05-10T04:59:11.434Z,77
2023-05-10T05:00:25.792Z,78
2023-05-10T05:02:53.978Z,62
2023-05-10T05:04:08.006Z,69
2023-05-10T05:05:22.097Z,75
2023-05-10T05:07:50.347Z,316
2023-05-10T05:09:04.621Z,158
2023-05-10T05:10:18.980Z,35
2023-05-10T05:12:46.938Z,38
2023-05-10T05:14:01.033Z,30
2023-05-10T05:15:15.223Z,31
2023-05-10T05:16:29.338Z,40
2023-05-10T05:17:43.530Z,48
2023-05-10T05:18:57.570Z,40
2023-05-10T05:20:11.699Z,59
2023-05-10T05:21:25.831Z,45
2023-05-10T05:23:54.080Z,219
2023-05-10T05:25:08.382Z,56
2023-05-10T05:26:22.465Z,64
2023-05-10T05:28:50.575Z,171
2023-05-10T05:30:04.843Z,440
2023-05-10T05:31:19.044Z,472
2023-05-10T05:33:47.362Z,83
2023-05-10T05:35:01.262Z,87
2023-05-10T05:36:15.573Z,80
2023-05-10T05:38:43.714Z,174
2023-05-10T05:39:58.020Z,67
2023-05-10T05:41:12.001Z,95
2023-05-10T05:42:26.076Z,85
2023-05-10T05:44:54.329Z,64
2023-05-10T05:46:08.595Z,63
2023-05-10T05:47:22.679Z,88
2023-05-10T05:49:50.876Z,132
2023-05-10T05:51:07.182Z,118
2023-05-10T05:52:19.229Z,118
2023-05-10T05:54:47.445Z,76
2023-05-10T05:56:01.588Z,117
2023-05-10T05:57:15.707Z,71
2023-05-10T05:59:44.119Z,79
2023-05-10T06:00:58.198Z,83
2023-05-10T06:02:12.274Z,86
2023-05-10T06:03:26.519Z,107
2023-05-10T06:05:54.679Z,84
2023-05-10T06:07:08.806Z,88
2023-05-10T06:08:22.890Z,70
2023-05-10T06:10:51.319Z,68
2023-05-10T06:12:05.350Z,75
2023-05-10T06:13:19.518Z,62
2023-05-10T06:15:47.717Z,63
2023-05-10T06:17:02.014Z,70
2023-05-10T06:18:15.964Z,62
2023-05-10T06:20:44.304Z,70
2023-05-10T06:21:58.418Z,76
2023-05-10T06:23:12.580Z,69
2023-05-10T06:24:26.632Z,67
2023-05-10T06:26:54.991Z,65
2023-05-10T06:28:09.144Z,64
2023-05-10T06:29:23.307Z,66
2023-05-10T06:31:51.466Z,64
2023-05-10T06:33:05.638Z,61
2023-05-10T06:34:19.697Z,59
2023-05-10T06:36:47.984Z,75
2023-05-10T06:38:02.093Z,62
2023-05-10T06:39:16.224Z,66
2023-05-10T06:41:44.519Z,65
2023-05-10T06:42:58.636Z,58
2023-05-10T06:44:12.777Z,64
2023-05-10T06:45:26.963Z,56
2023-05-10T06:47:55.180Z,62
2023-05-10T06:49:09.382Z,59
2023-05-10T06:50:23.504Z,63
2023-05-10T06:52:53.065Z,54
2023-05-10T06:54:05.826Z,53
2023-05-10T06:55:20.107Z,51
2023-05-10T06:57:48.344Z,47
2023-05-10T06:59:02.383Z,50
2023-05-10T07:00:16.712Z,52
2023-05-10T07:02:44.820Z,47
2023-05-10T07:03:58.878Z,48
2023-05-10T07:05:13.048Z,48
2023-05-10T07:07:41.244Z,43
2023-05-10T07:08:55.416Z,50
2023-05-10T07:10:09.558Z,39
2023-05-10T07:11:23.726Z,43
2023-05-10T07:13:52.030Z,40
2023-05-10T07:15:06.119Z,43
2023-05-10T07:16:20.241Z,44
2023-05-10T07:18:48.482Z,42
2023-05-10T07:20:02.667Z,33
2023-05-10T07:21:16.802Z,40
2023-05-10T07:23:45.374Z,36
2023-05-10T07:24:59.273Z,32
2023-05-10T07:26:13.300Z,35
2023-05-10T07:27:27.688Z,37
2023-05-10T07:29:55.726Z,30
2023-05-10T07:31:09.887Z,36
2023-05-10T07:32:24.190Z,30
2023-05-10T07:34:52.213Z,22
2023-05-10T07:36:06.361Z,22
2023-05-10T07:37:20.468Z,20
2023-05-10T07:39:48.738Z,17
2023-05-10T07:41:02.949Z,17
2023-05-10T07:42:16.989Z,17
2023-05-10T07:44:45.342Z,12
2023-05-10T07:45:59.520Z,15
2023-05-10T07:47:13.619Z,13
2023-05-10T07:49:41.867Z,15
2023-05-10T07:50:55.953Z,14
2023-05-10T07:52:10.179Z,13
2023-05-10T07:53:24.281Z,22
2023-05-10T07:55:52.628Z,11
2023-05-10T07:57:06.661Z,13
2023-05-10T07:58:20.677Z,11
2023-05-10T08:00:49.038Z,12
2023-05-10T08:02:03.173Z,14
2023-05-10T08:03:17.397Z,11
2023-05-10T08:05:45.553Z,11
2023-05-10T08:06:59.720Z,9
2023-05-10T08:08:13.861Z,11
2023-05-10T08:10:42.170Z,13
2023-05-10T08:11:56.282Z,18
2023-05-10T08:13:10.299Z,17
2023-05-10T08:14:24.521Z,18
2023-05-10T08:16:52.824Z,23
2023-05-10T08:18:06.968Z,18
2023-05-10T08:19:21.184Z,13
2023-05-10T08:20:35.218Z,14
2023-05-10T08:21:49.267Z,14
2023-05-10T08:23:03.511Z,12
2023-05-10T08:24:17.563Z,13
2023-05-10T08:26:45.835Z,16
2023-05-10T08:27:59.971Z,15
2023-05-10T08:29:14.098Z,13
2023-05-10T08:31:42.513Z,16
2023-05-10T08:32:56.509Z,13
2023-05-10T08:34:10.574Z,13
2023-05-10T08:35:24.779Z,10
2023-05-10T08:37:53.071Z,16
2023-05-10T08:39:13.473Z,12
2023-05-10T08:40:21.257Z,15
2023-05-10T08:42:49.609Z,14
2023-05-10T08:44:03.861Z,13
2023-05-10T08:45:18.121Z,13
2023-05-10T08:47:46.171Z,16
2023-05-10T08:49:00.202Z,11
2023-05-10T08:50:14.449Z,13
2023-05-10T08:52:42.607Z,12
2023-05-10T08:53:56.725Z,12
2023-05-10T08:55:10.845Z,17
2023-05-10T08:56:25.062Z,13
2023-05-10T08:58:53.485Z,24
2023-05-10T09:00:07.393Z,36
2023-05-10T09:01:21.648Z,14
2023-05-10T09:03:50.041Z,13
2023-05-10T09:05:04.125Z,36
2023-05-10T09:06:18.134Z,19
2023-05-10T09:08:46.329Z,13
2023-05-10T09:10:00.457Z,14
2023-05-10T09:11:14.747Z,12
2023-05-10T09:13:42.835Z,11
2023-05-10T09:14:57.220Z,13
2023-05-10T09:16:21.331Z,10
2023-05-10T09:17:25.405Z,11
2023-05-10T09:19:53.671Z,15
2023-05-10T09:21:07.666Z,8
2023-05-10T09:22:21.751Z,8
2023-05-10T09:24:50.227Z,8
2023-05-10T09:26:04.236Z,11
2023-05-10T09:27:18.340Z,9
2023-05-10T09:29:46.592Z,12
2023-05-10T09:31:00.871Z,10
2023-05-10T09:32:14.905Z,9
2023-05-10T09:34:43.254Z,14
2023-05-10T09:35:57.252Z,20
2023-05-10T09:37:11.404Z,8
2023-05-10T09:38:25.562Z,8
2023-05-10T09:40:54.938Z,8
2023-05-10T09:42:07.929Z,9
2023-05-10T09:43:22.066Z,7
2023-05-10T09:45:50.336Z,17
2023-05-10T09:47:04.601Z,8
2023-05-10T09:48:18.695Z,7
2023-05-10T09:50:46.864Z,15
2023-05-10T09:52:01.035Z,19
2023-05-10T09:53:15.150Z,14
2023-05-10T09:55:43.437Z,12
2023-05-10T09:56:57.537Z,9
2023-05-10T09:58:11.964Z,7
2023-05-10T09:59:25.839Z,7
2023-05-10T10:01:54.280Z,8
2023-05-10T10:03:08.230Z,7
2023-05-10T10:04:22.433Z,8
2023-05-10T10:06:50.701Z,7
2023-05-10T10:08:04.803Z,5
2023-05-10T10:09:18.912Z,5
2023-05-10T10:11:47.143Z,7
2023-05-10T10:13:01.242Z,7
2023-05-10T10:14:15.507Z,5
2023-05-10T10:16:59.537Z,9
2023-05-10T10:17:57.811Z,5
2023-05-10T10:19:11.935Z,5
2023-05-10T10:20:26.116Z,5
2023-05-10T10:22:54.310Z,4
2023-05-10T10:24:08.453Z,5
2023-05-10T10:25:22.642Z,5
2023-05-10T10:27:50.796Z,6
2023-05-10T10:29:05.169Z,6
2023-05-10T10:30:19.178Z,6
2023-05-10T10:32:47.507Z,6
2023-05-10T10:34:01.766Z,5
2023-05-10T10:35:15.873Z,6
2023-05-10T10:37:44.012Z,7
2023-05-10T10:38:58.106Z,6
2023-05-10T10:40:12.195Z,6
2023-05-10T10:41:26.750Z,8
2023-05-10T10:43:54.720Z,8
2023-05-10T10:45:08.973Z,7
2023-05-10T10:46:23.024Z,6
2023-05-10T10:48:51.134Z,11
2023-05-10T10:50:05.299Z,15
2023-05-10T10:51:19.396Z,15
2023-05-10T10:53:47.650Z,14
2023-05-10T10:55:01.823Z,16
2023-05-10T10:56:15.931Z,16
2023-05-10T10:58:44.199Z,19
2023-05-10T10:59:58.390Z,22
2023-05-10T11:01:12.716Z,23
2023-05-10T11:02:26.686Z,22
2023-05-10T11:04:54.820Z,20
2023-05-10T11:06:09.062Z,19
2023-05-10T11:07:23.203Z,19
2023-05-10T11:09:51.433Z,18
2023-05-10T11:11:05.632Z,19
2023-05-10T11:12:19.766Z,19
2023-05-10T11:14:48.066Z,17
2023-05-10T11:16:02.211Z,16
2023-05-10T11:17:16.385Z,16
2023-05-10T11:19:44.457Z,16
2023-05-10T11:20:58.742Z,17
2023-05-10T11:22:12.760Z,18
2023-05-10T11:24:41.015Z,19
2023-05-10T11:25:55.281Z,21
2023-05-10T11:27:09.435Z,21
2023-05-10T11:28:23.423Z,23
2023-05-10T11:30:51.729Z,24
2023-05-10T11:32:05.850Z,21
2023-05-10T11:33:20.125Z,24
2023-05-10T11:35:48.294Z,23
2023-05-10T11:37:02.327Z,21
2023-05-10T11:38:16.466Z,22
2023-05-10T11:40:44.826Z,25
2023-05-10T11:41:59.611Z,20
2023-05-10T11:43:13.022Z,20
2023-05-10T11:44:27.267Z,21
2023-05-10T11:46:55.386Z,21
2023-05-10T11:48:09.649Z,22
2023-05-10T11:49:23.750Z,20
2023-05-10T11:51:51.975Z,17
2023-05-10T11:53:06.111Z,18
2023-05-10T11:54:20.247Z,18
2023-05-10T11:56:48.471Z,16
2023-05-10T11:58:02.598Z,16
2023-05-10T11:59:16.742Z,17
2023-05-10T12:01:45.051Z,19
2023-05-10T12:02:59.295Z,17
2023-05-10T12:04:13.417Z,15
2023-05-10T12:05:27.391Z,15
2023-05-10T12:07:55.671Z,14
2023-05-10T12:09:09.825Z,12
2023-05-10T12:10:24.025Z,13
2023-05-10T12:12:52.185Z,12
2023-05-10T12:14:06.307Z,10
2023-05-10T12:15:20.432Z,10
2023-05-10T12:17:48.893Z,11
2023-05-10T12:19:03.010Z,10
2023-05-10T12:20:17.380Z,8
2023-05-10T12:22:45.294Z,9
2023-05-10T12:23:59.472Z,10
2023-05-10T12:25:13.550Z,10
2023-05-10T12:27:41.841Z,8
2023-05-10T12:28:56.097Z,8
2023-05-10T12:30:10.117Z,8
2023-05-10T12:31:24.241Z,8
2023-05-10T12:33:52.526Z,7
2023-05-10T12:35:06.651Z,8
2023-05-10T12:36:20.679Z,8
2023-05-10T12:38:49.190Z,9
2023-05-10T12:40:03.195Z,7
2023-05-10T12:41:17.348Z,7
2023-05-10T12:43:45.646Z,7
2023-05-10T12:44:59.780Z,10
2023-05-10T12:46:13.831Z,7
2023-05-10T12:48:42.098Z,7
2023-05-10T12:49:56.201Z,7
2023-05-10T12:51:10.462Z,6
2023-05-10T12:52:24.492Z,6
2023-05-10T12:54:52.778Z,7
2023-05-10T12:56:06.891Z,6
2023-05-10T12:57:21.082Z,5
2023-05-10T12:58:36.197Z,6
2023-05-10T12:59:49.284Z,5
2023-05-10T13:01:03.628Z,6
2023-05-10T13:02:17.535Z,7
2023-05-10T13:04:45.947Z,5
2023-05-10T13:06:00.249Z,7
2023-05-10T13:07:14.086Z,5
2023-05-10T13:09:42.357Z,4
2023-05-10T13:10:56.485Z,4
2023-05-10T13:12:10.592Z,6
2023-05-10T13:13:24.865Z,6
2023-05-10T13:15:53.117Z,4
2023-05-10T13:17:07.241Z,4
2023-05-10T13:18:21.289Z,5
2023-05-10T13:20:49.538Z,4
2023-05-10T13:22:03.716Z,4
2023-05-10T13:23:17.792Z,4
2023-05-10T13:25:46.147Z,4
2023-05-10T13:27:00.241Z,3
2023-05-10T13:28:14.333Z,3
2023-05-10T13:30:42.656Z,3
2023-05-10T13:31:56.815Z,3
2023-05-10T13:33:10.927Z,4
2023-05-10T13:34:25.077Z,3
2023-05-10T13:36:53.347Z,3
2023-05-10T13:38:07.402Z,4
2023-05-10T13:39:21.567Z,4
2023-05-10T13:41:49.903Z,4
2023-05-10T13:43:04.024Z,3
2023-05-10T13:44:18.078Z,4
2023-05-10T13:46:46.410Z,3
2023-05-10T13:48:00.532Z,5
2023-05-10T13:49:14.735Z,4
2023-05-10T13:51:42.896Z,4
2023-05-10T13:52:57.023Z,3
2023-05-10T13:54:13.414Z,4
2023-05-10T13:55:25.367Z,3
2023-05-10T13:57:53.796Z,4
2023-05-10T13:59:07.742Z,3
2023-05-10T14:00:21.871Z,3
2023-05-10T14:02:50.194Z,3
2023-05-10T14:04:04.327Z,4
2023-05-10T14:05:19.926Z,4
2023-05-10T14:07:46.681Z,3
2023-05-10T14:09:00.769Z,4
2023-05-10T14:10:14.899Z,4
2023-05-10T14:12:43.239Z,3
2023-05-10T14:13:57.258Z,3
2023-05-10T14:15:11.381Z,5
2023-05-10T14:16:25.569Z,3
2023-05-10T14:18:54.019Z,4
2023-05-10T14:20:07.946Z,3
2023-05-10T14:21:22.138Z,4
2023-05-10T14:23:50.344Z,4
2023-05-10T14:25:04.545Z,5
2023-05-10T14:26:18.617Z,5
2023-05-10T14:28:46.932Z,4
2023-05-10T14:30:00.970Z,4
2023-05-10T14:31:15.227Z,3
2023-05-10T14:33:43.482Z,3
2023-05-10T14:34:57.532Z,3
2023-05-10T14:36:11.640Z,4
2023-05-10T14:37:25.853Z,4
2023-05-10T14:39:54.232Z,3
2023-05-10T14:41:09.466Z,5
2023-05-10T14:42:22.341Z,3
2023-05-10T14:44:50.572Z,3
2023-05-10T14:46:04.819Z,3
2023-05-10T14:47:18.857Z,2
2023-05-10T14:49:47.160Z,2
2023-05-10T14:51:01.337Z,3
2023-05-10T14:52:15.406Z,3
2023-05-10T14:54:43.716Z,2
2023-05-10T14:55:57.849Z,3
2023-05-10T14:57:11.993Z,2
2023-05-10T14:58:26.094Z,4
2023-05-10T15:00:54.476Z,3
2023-05-10T15:02:08.457Z,3
2023-05-10T15:03:22.796Z,4
2023-05-10T15:05:51.100Z,4
2023-05-10T15:07:05.084Z,2
2023-05-10T15:08:19.159Z,2
2023-05-10T15:10:47.393Z,2
2023-05-10T15:12:01.623Z,2
2023-05-10T15:13:15.667Z,3
2023-05-10T15:15:43.959Z,4
2023-05-10T15:16:58.024Z,3
2023-05-10T15:18:12.440Z,4
2023-05-10T15:19:26.318Z,3
2023-05-10T15:21:54.610Z,3
2023-05-10T15:23:08.752Z,3
2023-05-10T15:24:22.844Z,4
2023-05-10T15:26:51.163Z,3
2023-05-10T15:28:05.329Z,3
2023-05-10T15:29:19.389Z,4
2023-05-10T15:31:47.685Z,4
2023-05-10T15:33:01.886Z,4
2023-05-10T15:34:15.922Z,4
2023-05-10T15:36:44.209Z,4
2023-05-10T15:37:58.317Z,5
2023-05-10T15:39:12.732Z,5
2023-05-10T15:40:27.799Z,4
2023-05-10T15:42:54.829Z,3
2023-05-10T15:44:08.963Z,3
2023-05-10T15:45:23.251Z,4
2023-05-10T15:47:51.426Z,5
2023-05-10T15:49:05.572Z,3
2023-05-10T15:50:19.661Z,3
2023-05-10T15:52:47.890Z,4
2023-05-10T15:54:07.100Z,4
2023-05-10T15:55:16.432Z,8
2023-05-10T15:57:45.037Z,10
2023-05-10T15:58:59.469Z,4
2023-05-10T16:00:15.159Z,3
2023-05-10T16:01:26.973Z,3
2023-05-10T16:03:55.160Z,3
2023-05-10T16:05:09.252Z,3
2023-05-10T16:06:23.399Z,2
2023-05-10T16:08:52.906Z,2
2023-05-10T16:10:05.797Z,2
2023-05-10T16:11:19.949Z,3
2023-05-10T16:13:48.204Z,5
2023-05-10T16:15:02.336Z,6
2023-05-10T16:16:16.599Z,9
2023-05-10T16:18:44.895Z,7
2023-05-10T16:19:59.359Z,4
2023-05-10T16:21:13.016Z,3
2023-05-10T16:22:27.161Z,5
2023-05-10T16:24:55.359Z,3
2023-05-10T16:26:09.602Z,3
2023-05-10T16:27:23.745Z,3
2023-05-10T16:29:52.255Z,7
2023-05-10T16:31:06.078Z,2
2023-05-10T16:32:20.221Z,2
2023-05-10T16:34:48.487Z,5
2023-05-10T16:36:02.678Z,2
2023-05-10T16:37:16.819Z,2
2023-05-10T16:39:45.181Z,2
2023-05-10T16:40:59.215Z,1
2023-05-10T16:42:13.539Z,2
2023-05-10T16:44:41.522Z,2
2023-05-10T16:45:55.883Z,5
2023-05-10T16:47:09.833Z,2
2023-05-10T16:48:23.971Z,2
2023-05-10T16:50:52.356Z,2
2023-05-10T16:52:06.424Z,2
2023-05-10T16:53:20.481Z,4
2023-05-10T16:55:48.802Z,3
2023-05-10T16:57:02.853Z,2
2023-05-10T16:58:17.009Z,2
2023-05-10T17:00:45.380Z,2
2023-05-10T17:01:59.524Z,2
2023-05-10T17:03:13.574Z,2
2023-05-10T17:04:27.665Z,2
2023-05-10T17:06:55.932Z,2
2023-05-10T17:08:10.193Z,2
2023-05-10T17:09:24.356Z,2
2023-05-10T17:11:52.436Z,2
2023-05-10T17:13:08.125Z,3
2023-05-10T17:14:20.955Z,4
2023-05-10T17:16:49.041Z,3
2023-05-10T17:18:03.278Z,3
2023-05-10T17:19:17.281Z,2
2023-05-10T17:21:46.009Z,3
2023-05-10T17:22:59.725Z,3
2023-05-10T17:24:13.860Z,2
2023-05-10T17:26:42.126Z,2
2023-05-10T17:27:56.236Z,2
2023-05-10T17:29:10.382Z,2
2023-05-10T17:30:24.586Z,3
2023-05-10T17:32:52.885Z,2
2023-05-10T17:34:06.888Z,4
2023-05-10T17:35:21.113Z,2
2023-05-10T17:36:35.197Z,2
2023-05-10T17:37:49.379Z,1
2023-05-10T17:39:03.514Z,2
2023-05-10T17:40:17.512Z,2
2023-05-10T17:42:45.965Z,3
2023-05-10T17:43:59.974Z,3
2023-05-10T17:45:14.277Z,2
2023-05-10T17:47:42.402Z,4
2023-05-10T17:48:56.455Z,2
2023-05-10T17:50:10.729Z,3
2023-05-10T17:51:24.824Z,3
2023-05-10T17:53:53.022Z,2
2023-05-10T17:55:07.142Z,3
2023-05-10T17:56:21.285Z,3
2023-05-10T17:58:49.580Z,2
2023-05-10T18:00:03.783Z,2
2023-05-10T18:01:17.864Z,3
2023-05-10T18:03:46.097Z,2
2023-05-10T18:05:00.490Z,2
2023-05-10T18:06:14.521Z,3
2023-05-10T18:07:28.593Z,3
2023-05-10T18:08:42.597Z,5
2023-05-10T18:09:56.773Z,10
2023-05-10T18:11:10.825Z,10
2023-05-10T18:12:24.984Z,9
2023-05-10T18:14:53.390Z,5
2023-05-10T18:16:07.408Z,3
2023-05-10T18:17:21.496Z,4
2023-05-10T18:19:49.822Z,3
2023-05-10T18:21:04.041Z,3
2023-05-10T18:22:18.036Z,4
2023-05-10T18:24:46.351Z,5
2023-05-10T18:26:00.427Z,6
2023-05-10T18:27:14.678Z,5
2023-05-10T18:29:42.957Z,4
2023-05-10T18:30:56.977Z,5
2023-05-10T18:32:11.121Z,7
2023-05-10T18:33:25.292Z,7
2023-05-10T18:35:53.606Z,6
2023-05-10T18:37:08.113Z,17
2023-05-10T18:38:21.812Z,8
2023-05-10T18:40:50.037Z,3
2023-05-10T18:42:04.202Z,4
2023-05-10T18:43:18.555Z,6
2023-05-10T18:45:46.606Z,5
2023-05-10T18:47:00.678Z,4
2023-05-10T18:48:14.872Z,4
2023-05-10T18:50:43.081Z,3
2023-05-10T18:51:57.275Z,4
2023-05-10T18:53:11.367Z,3
2023-05-10T18:54:25.496Z,4
2023-05-10T18:56:54.071Z,4
2023-05-10T18:58:07.934Z,3
2023-05-10T18:59:22.050Z,5
2023-05-10T19:01:51.320Z,4
2023-05-10T19:03:04.555Z,3
2023-05-10T19:04:18.751Z,3
2023-05-10T19:06:46.880Z,3
2023-05-10T19:08:00.970Z,3
2023-05-10T19:09:15.130Z,3
2023-05-10T19:11:43.576Z,3
2023-05-10T19:12:57.802Z,3
2023-05-10T19:14:11.632Z,3
2023-05-10T19:15:25.897Z,3
2023-05-10T19:17:55.102Z,3
2023-05-10T19:19:08.700Z,5
2023-05-10T19:20:23.066Z,3
2023-05-10T19:23:08.477Z,4
2023-05-10T19:24:04.870Z,3
2023-05-10T19:25:19.802Z,5
2023-05-10T19:27:52.985Z,4
2023-05-10T19:29:01.240Z,4
2023-05-10T19:30:15.469Z,4
2023-05-10T19:32:43.712Z,4
2023-05-10T19:34:00.030Z,5
2023-05-10T19:35:11.916Z,6
2023-05-10T19:36:26.131Z,6
2023-05-10T19:38:54.546Z,5
2023-05-10T19:40:09.119Z,4
2023-05-10T19:41:22.728Z,4
2023-05-10T19:43:51.966Z,4
2023-05-10T19:45:05.058Z,5
2023-05-10T19:46:20.248Z,5
2023-05-10T19:48:48.745Z,3
2023-05-10T19:50:01.513Z,6
2023-05-10T19:51:15.738Z,5
2023-05-10T19:53:44.195Z,8
2023-05-10T19:54:58.049Z,7
2023-05-10T19:56:12.205Z,8
2023-05-10T19:57:26.433Z,8
2023-05-10T19:59:54.705Z,10
2023-05-10T20:01:08.770Z,9
2023-05-10T20:02:22.900Z,8
2023-05-10T20:04:51.060Z,10
2023-05-10T20:06:05.306Z,10
2023-05-10T20:07:19.401Z,8
2023-05-10T20:09:47.651Z,11
2023-05-10T20:11:01.777Z,9
2023-05-10T20:12:15.979Z,8
2023-05-10T20:14:44.396Z,8
2023-05-10T20:15:58.326Z,8
2023-05-10T20:17:12.531Z,9
2023-05-10T20:18:26.681Z,10
2023-05-10T20:20:55.660Z,8
2023-05-10T20:22:09.082Z,8
2023-05-10T20:23:23.195Z,8
2023-05-10T20:25:51.398Z,7
2023-05-10T20:27:05.591Z,8
2023-05-10T20:28:19.766Z,8
2023-05-10T20:30:48.027Z,8
2023-05-10T20:32:02.054Z,9
2023-05-10T20:33:16.178Z,8
2023-05-10T20:35:44.477Z,8
2023-05-10T20:36:58.578Z,8
2023-05-10T20:38:12.718Z,8
2023-05-10T20:39:26.843Z,8
2023-05-10T20:41:55.091Z,9
2023-05-10T20:43:09.253Z,6
2023-05-10T20:44:23.454Z,7
2023-05-10T20:48:05.890Z,7
2023-05-10T20:49:20.000Z,8
2023-05-10T20:51:48.266Z,6
2023-05-10T20:53:02.331Z,7
2023-05-10T20:54:16.455Z,8
2023-05-10T20:56:44.828Z,8
2023-05-10T20:57:58.967Z,7
2023-05-10T20:59:13.013Z,6
2023-05-10T21:00:27.222Z,8
2023-05-10T21:02:55.406Z,6
2023-05-10T21:04:09.520Z,6
2023-05-10T21:05:23.824Z,8
2023-05-10T21:07:51.949Z,7
2023-05-10T21:09:06.329Z,5
2023-05-10T21:10:20.304Z,9
2023-05-10T21:12:48.520Z,8
2023-05-10T21:14:02.693Z,6
2023-05-10T21:15:16.727Z,8
2023-05-10T21:17:45.109Z,8
2023-05-10T21:18:59.388Z,8
2023-05-10T21:20:13.352Z,7
2023-05-10T21:21:27.390Z,7
2023-05-10T21:23:55.640Z,8
2023-05-10T21:25:09.914Z,6
2023-05-10T21:26:24.037Z,8
2023-05-10T21:28:52.224Z,7
2023-05-10T21:30:06.497Z,7
2023-05-10T21:31:20.518Z,10
2023-05-10T21:33:48.724Z,8
2023-05-10T21:35:02.914Z,8
2023-05-10T21:36:16.997Z,7
2023-05-10T21:38:45.314Z,8
2023-05-10T21:39:59.452Z,9
2023-05-10T21:41:13.594Z,9
2023-05-10T21:42:27.757Z,10
2023-05-10T21:44:55.936Z,11
2023-05-10T21:46:10.170Z,10
2023-05-10T21:47:24.234Z,11
2023-05-10T21:49:52.503Z,8
2023-05-10T21:51:06.688Z,9
2023-05-10T21:52:20.681Z,9
2023-05-10T21:54:49.075Z,10
2023-05-10T21:56:03.224Z,9
2023-05-10T21:57:17.298Z,9
2023-05-10T21:59:45.534Z,10
2023-05-10T22:00:59.793Z,11
2023-05-10T22:02:13.812Z,13
2023-05-10T22:04:42.130Z,18
2023-05-10T22:05:56.214Z,51
2023-05-10T22:07:10.304Z,59
2023-05-10T22:08:24.537Z,44
2023-05-10T22:10:52.795Z,14
2023-05-10T22:12:06.865Z,12
2023-05-10T22:13:20.993Z,15
2023-05-10T22:14:35.144Z,14
2023-05-10T22:15:49.338Z,17
2023-05-10T22:17:03.553Z,13
2023-05-10T22:18:17.557Z,15
2023-05-10T22:20:45.857Z,18
2023-05-10T22:22:00.037Z,19
2023-05-10T22:23:14.076Z,15
2023-05-10T22:25:42.323Z,18
2023-05-10T22:26:56.485Z,18
2023-05-10T22:28:10.571Z,20
2023-05-10T22:29:24.854Z,19
2023-05-10T22:31:53.025Z,20
2023-05-10T22:33:07.306Z,17
2023-05-10T22:34:21.263Z,18
2023-05-10T22:36:49.570Z,21
2023-05-10T22:38:03.677Z,18
2023-05-10T22:39:17.806Z,18
2023-05-10T22:41:46.080Z,19
2023-05-10T22:43:00.642Z,20
2023-05-10T22:44:14.416Z,20
2023-05-10T22:45:28.530Z,20
2023-05-10T22:46:42.716Z,15
2023-05-10T22:47:56.734Z,16
2023-05-10T22:49:10.909Z,15
2023-05-10T22:50:25.081Z,21
2023-05-10T22:52:53.361Z,15
2023-05-10T22:54:07.481Z,17
2023-05-10T22:55:21.529Z,20
2023-05-10T22:57:49.820Z,16
2023-05-10T22:59:04.055Z,16
2023-05-10T23:00:18.322Z,17
2023-05-10T23:02:46.371Z,15
2023-05-10T23:04:00.448Z,15
2023-05-10T23:05:14.716Z,17
2023-05-10T23:07:42.915Z,15
2023-05-10T23:08:56.981Z,16